Kaltag, AK

11:44 AM AKDT on July 23, 2014 (GMT -0800)
Pitka (PAGA) Elev 151 ft | 64.74 °N, 156.94 °W | Change Station
Active Advisory: Special Statement

Current weather conditions updated 41 minutes ago

Light Rain
Light Rain
52 °F
Feels Like 52 °F
N
6
Wind Variable Wind from WSW

Today is forecast to be Cooler than yesterday. Periods of light rain.

Today
High -- | Low -- °F
--% Chance of Precip.
Yesterday
High -- | Low -- °F
Precip. -- in
5:11 AM 0:09 AM
Waning Crescent, 9% visible
Pressure 29.74 in
Visibility 8.0 miles
Clouds
Dew Point 48 °F
Humidity 88%
Rainfall 0.00 in
Snow Depth Not available.
UV Not available.
Pollen Not available.
Air Quality Not available.
Flu Activity Not available.
SPECI PAGA 231903Z AUTO 25005KT 8SM -RA 11/09 A2974 RMK AO2 PNO $

More Conditions Fewer Conditions

Pressure 29.74 in
Visibility 8.0 miles
Clouds
Dew Point 48 °F
Humidity 88%
Rainfall 0.00 in
Snow Depth Not available.
UV Not available.
Pollen Not available.
Air Quality Not available.
Flu Activity Not available.
SPECI PAGA 231903Z AUTO 25005KT 8SM -RA 11/09 A2974 RMK AO2 PNO $

More Conditions Fewer Conditions

10-Day Weather Forecast

Almanac

Astronomy

Jul. 23, 2014 Rise Set
Actual Time 5:11 AM AKDT 12:09 AM AKDT
Civil Twilight 3:13 AM AKDT 2:08 AM AKDT
Nautical Twilight Sun does not rise Sun does not rise
Astronomical Twilight Sun does not rise Sun does not rise
Moon 2:55 AM AKDT 9:31 PM AKDT
Length of Visible Light 22h 55m
Length of Day
18h 57m
Tomorrow will be 6m 28s shorter.
Waning Crescent, 9% of the Moon is Illuminated
Today
Waning Crescent
Jul 26
New
Aug 3
First Quarter
Aug 10
Full
Aug 17
Last Quarter

Today's Extremes

State Highs State Lows

Community

WunderPhotos

Upload Photos

1,736,734 photos uploaded!

Nearby

Snow Depth

Station Depth Elevation
Rocky Point 2 in 500 ft
Gobblers Knob 0 in 2030 ft
Susitna Valley High 2 in 375 ft
Coldfoot 1 in 1040 ft
Point Mackenzie 1 in 200 ft

Earthquake Activity

City Distance Mag. Time & Date
No recent earthquake activity has been reported nearby.
Minimum magnitude displayed is 2.5.

Coastal Water Temperatures

Place Temperature
No Stations Reporting

Nearby Weather Stations

Station Location Temp. Dew Point Humidity Wind Precip. Elev Updated Type
RAWS KAIYUH AK, Kaltag, AK 51 °F 48 °F 89% SSW  at  10 mph 0.00 in / hr 109 ft 10:21 AM AKDT MADIS

Show More Stations Show Fewer Stations